Time;durP1;ratioP1;P1;durP2;ratioP2;P2;SDS_P1;SDS_P2;PMS_P1;PMS_P2;Temp;Humidity;BMP_temperature;BMP_pressure;BME280_temperature;BME280_humidity;BME280_pressure;Samples;Min_cycle;Max_cycle;Signal;HPM_P1;HPM_P2
2023/04/03 00:02:22;;;;;;;8.38;2.50;;;;;;;;;;5013548;28;20045;-65
2023/04/03 00:04:52;;;;;;;7.57;2.65;;;;;;;;;;4979151;28;20433;-65
2023/04/03 00:07:22;;;;;;;7.65;2.35;;;;;;;;;;5013567;28;20046;-64
2023/04/03 00:09:51;;;;;;;10.05;2.85;;;;;;;;;;5012742;28;20374;-65
2023/04/03 00:12:21;;;;;;;7.93;2.90;;;;;;;;;;4995320;28;20391;-64
2023/04/03 00:14:51;;;;;;;12.07;3.22;;;;;;;;;;4995534;28;20054;-65
2023/04/03 00:17:25;;;;;;;8.65;2.53;;;;;;;;;;4990976;28;20054;-65
2023/04/03 00:19:55;;;;;;;11.50;2.60;;;;;;;;;;4958882;28;20050;-65
2023/04/03 00:22:26;;;;;;;11.75;2.70;;;;;;;;;;4975518;28;20065;-65
2023/04/03 00:24:56;;;;;;;15.30;3.00;;;;;;;;;;4959162;28;20055;-65
2023/04/03 00:27:26;;;;;;;14.60;2.40;;;;;;;;;;4958635;28;20061;-65
2023/04/03 00:29:56;;;;;;;9.73;2.70;;;;;;;;;;4944069;28;20507;-65
2023/04/03 00:32:26;;;;;;;12.70;2.88;;;;;;;;;;4990929;28;20197;-65
2023/04/03 00:34:56;;;;;;;10.30;2.55;;;;;;;;;;4990529;28;20058;-65
2023/04/03 00:37:25;;;;;;;9.68;2.80;;;;;;;;;;4991053;28;20042;-63
2023/04/03 00:39:55;;;;;;;8.10;2.53;;;;;;;;;;4991089;28;20046;-65
2023/04/03 00:42:25;;;;;;;9.05;2.50;;;;;;;;;;4939603;28;20050;-65
2023/04/03 00:45:00;;;;;;;8.25;2.50;;;;;;;;;;4923366;28;20065;-65
2023/04/03 00:47:31;;;;;;;9.55;2.40;;;;;;;;;;4923437;28;20792;-65
2023/04/03 00:50:02;;;;;;;6.43;2.58;;;;;;;;;;4886035;29;20409;-65
2023/04/03 00:52:32;;;;;;;7.57;2.22;;;;;;;;;;4932621;29;20068;-65
2023/04/03 00:55:05;;;;;;;9.75;3.05;;;;;;;;;;4942937;29;20412;-65
2023/04/03 00:57:35;;;;;;;8.32;2.92;;;;;;;;;;4951860;29;20059;-65
2023/04/03 01:00:09;;;;;;;7.32;2.70;;;;;;;;;;4913575;29;20056;-65
2023/04/03 01:02:40;;;;;;;7.47;2.72;;;;;;;;;;4913554;29;20056;-65
2023/04/03 01:05:16;;;;;;;10.43;3.35;;;;;;;;;;4863985;29;20520;-64
2023/04/03 01:07:46;;;;;;;7.90;3.25;;;;;;;;;;4863661;29;20172;-64
2023/04/03 01:10:19;;;;;;;9.25;2.63;;;;;;;;;;4878709;29;20555;-64
2023/04/03 01:12:50;;;;;;;;;;;;;;;;;;4839027;29;20050;-64
2023/04/03 01:15:26;;;;;;;10.02;2.80;;;;;;;;;;4841558;29;19931;-65
2023/04/03 01:17:58;;;;;;;6.85;2.78;;;;;;;;;;4790918;29;20066;-65
2023/04/03 01:20:36;;;;;;;8.50;2.95;;;;;;;;;;4827730;29;20057;-64
2023/04/03 01:23:11;;;;;;;8.35;2.58;;;;;;;;;;4868584;29;20049;-65
2023/04/03 01:25:53;;;;;;;7.38;2.55;;;;;;;;;;4876337;29;20069;-65
2023/04/03 01:28:34;;;;;;;8.77;2.90;;;;;;;;;;4863334;29;20071;-65
2023/04/03 01:31:27;;;;;;;8.38;3.58;;;;;;;;;;4901824;29;20412;-65
2023/04/03 01:33:59;;;;;;;6.65;2.50;;;;;;;;;;4893852;29;20049;-64
2023/04/03 01:36:32;;;;;;;6.95;3.10;;;;;;;;;;4888848;29;20412;-64
2023/04/03 01:39:02;;;;;;;9.95;3.35;;;;;;;;;;4913065;29;20413;-64
2023/04/03 01:41:32;;;;;;;6.22;2.75;;;;;;;;;;4893863;29;20057;-64
2023/04/03 01:44:11;;;;;;;7.35;2.92;;;;;;;;;;4889373;29;20057;-65
2023/04/03 01:46:42;;;;;;;10.38;3.25;;;;;;;;;;4912458;29;20056;-64
2023/04/03 01:49:12;;;;;;;17.98;3.38;;;;;;;;;;4912643;29;20060;-65
2023/04/03 01:51:42;;;;;;;10.80;3.03;;;;;;;;;;4893665;29;20052;-65
2023/04/03 01:54:12;;;;;;;9.55;3.17;;;;;;;;;;4893850;29;20049;-65
2023/04/03 01:56:42;;;;;;;15.10;3.38;;;;;;;;;;4876024;29;20060;-65
2023/04/03 01:59:12;;;;;;;12.45;3.85;;;;;;;;;;4874983;29;20513;-63
2023/04/03 02:01:43;;;;;;;11.80;3.33;;;;;;;;;;4874939;29;20049;-63
2023/04/03 02:04:13;;;;;;;7.65;3.40;;;;;;;;;;4870550;29;20053;-65
2023/04/03 02:06:43;;;;;;;10.13;3.40;;;;;;;;;;4837956;29;20062;-65
2023/04/03 02:09:13;;;;;;;8.80;3.30;;;;;;;;;;4853395;29;20065;-66
2023/04/03 02:11:44;;;;;;;10.52;3.92;;;;;;;;;;4822393;29;20577;-64
2023/04/03 02:14:14;;;;;;;9.90;3.22;;;;;;;;;;4823022;29;20069;-64
2023/04/03 02:16:45;;;;;;;7.95;2.50;;;;;;;;;;4840590;29;20439;-64
2023/04/03 02:19:16;;;;;;;10.40;2.85;;;;;;;;;;4856691;29;20057;-63
2023/04/03 02:21:46;;;;;;;8.50;2.85;;;;;;;;;;4865025;29;20553;-63
2023/04/03 02:24:15;;;;;;;9.68;3.05;;;;;;;;;;4837647;29;20054;-64
2023/04/03 02:26:45;;;;;;;5.60;2.33;;;;;;;;;;4849624;29;20065;-65
2023/04/03 02:29:15;;;;;;;7.22;3.08;;;;;;;;;;4893338;29;20048;-65
2023/04/03 02:31:45;;;;;;;18.83;3.35;;;;;;;;;;4877653;29;20053;-64
2023/04/03 02:34:15;;;;;;;9.38;2.97;;;;;;;;;;4878058;29;20498;-64
2023/04/03 02:36:46;;;;;;;10.75;3.55;;;;;;;;;;4865909;29;20050;-64
2023/04/03 02:39:17;;;;;;;6.70;3.05;;;;;;;;;;4859218;29;20065;-65
2023/04/03 02:41:48;;;;;;;11.98;2.92;;;;;;;;;;4843006;29;20507;-66
2023/04/03 02:44:23;;;;;;;8.50;2.83;;;;;;;;;;4841443;29;20057;-65
2023/04/03 02:46:54;;;;;;;8.43;2.70;;;;;;;;;;4843354;29;20530;-65
2023/04/03 02:49:24;;;;;;;6.93;3.05;;;;;;;;;;4856733;29;20069;-65
2023/04/03 02:51:54;;;;;;;7.03;2.50;;;;;;;;;;4854782;29;20058;-65
2023/04/03 02:54:27;;;;;;;9.38;2.55;;;;;;;;;;4874388;29;20041;-65
2023/04/03 02:57:01;;;;;;;6.68;2.75;;;;;;;;;;4859951;29;20521;-66
2023/04/03 02:59:31;;;;;;;6.70;2.85;;;;;;;;;;4841070;29;20054;-65
2023/04/03 03:02:01;;;;;;;6.35;2.65;;;;;;;;;;4831839;29;20073;-65
2023/04/03 03:04:31;;;;;;;6.45;2.80;;;;;;;;;;4856106;29;20287;-65
2023/04/03 03:07:01;;;;;;;6.57;2.80;;;;;;;;;;4850962;29;20061;-65
2023/04/03 03:09:32;;;;;;;7.10;2.85;;;;;;;;;;4856051;29;20050;-65
2023/04/03 03:12:02;;;;;;;8.05;2.53;;;;;;;;;;4849088;29;20481;-66
2023/04/03 03:14:32;;;;;;;6.53;2.70;;;;;;;;;;4858787;29;20068;-65
2023/04/03 03:17:02;;;;;;;8.52;2.88;;;;;;;;;;4822166;29;20054;-66
2023/04/03 03:19:32;;;;;;;5.38;2.25;;;;;;;;;;4822412;29;20062;-65
2023/04/03 03:22:02;;;;;;;5.45;2.40;;;;;;;;;;4815981;29;20066;-65
2023/04/03 03:24:32;;;;;;;8.15;2.92;;;;;;;;;;4840976;29;20066;-66
2023/04/03 03:27:01;;;;;;;6.68;2.60;;;;;;;;;;4851597;29;20541;-64
2023/04/03 03:29:31;;;;;;;9.93;2.72;;;;;;;;;;4859225;29;20171;-64
2023/04/03 03:32:04;;;;;;;11.73;2.80;;;;;;;;;;4821498;29;20072;-65
2023/04/03 03:34:35;;;;;;;6.65;2.00;;;;;;;;;;4777177;29;20520;-64
2023/04/03 03:37:06;;;;;;;5.90;2.53;;;;;;;;;;4793905;29;20412;-65
2023/04/03 03:39:35;;;;;;;10.07;2.85;;;;;;;;;;4805255;29;20384;-65
2023/04/03 03:42:05;;;;;;;7.20;2.30;;;;;;;;;;4803914;29;20054;-65
2023/04/03 03:44:35;;;;;;;5.95;2.25;;;;;;;;;;4804041;29;20059;-66
2023/04/03 03:47:06;;;;;;;6.82;2.35;;;;;;;;;;4803642;29;20058;-65
2023/04/03 03:49:36;;;;;;;7.68;2.35;;;;;;;;;;4803829;29;20055;-65
2023/04/03 03:52:05;;;;;;;10.23;2.25;;;;;;;;;;4830517;29;20057;-64
2023/04/03 03:54:35;;;;;;;5.80;2.42;;;;;;;;;;4824041;29;20059;-66
2023/04/03 03:57:05;;;;;;;9.13;2.38;;;;;;;;;;4774060;29;20188;-65
2023/04/03 03:59:36;;;;;;;11.23;2.45;;;;;;;;;;4840063;29;20049;-67
2023/04/03 04:02:06;;;;;;;5.95;2.15;;;;;;;;;;4840262;29;20066;-65
2023/04/03 04:04:37;;;;;;;5.75;2.35;;;;;;;;;;4839762;29;20062;-64
2023/04/03 04:07:07;;;;;;;6.78;2.10;;;;;;;;;;4821648;29;20059;-64
2023/04/03 04:09:37;;;;;;;7.90;2.22;;;;;;;;;;4811542;29;20061;-64
2023/04/03 04:12:09;;;;;;;6.45;2.13;;;;;;;;;;4843130;29;20455;-65
2023/04/03 04:14:40;;;;;;;6.30;2.35;;;;;;;;;;4858120;29;20053;-64
2023/04/03 04:17:10;;;;;;;5.93;2.15;;;;;;;;;;4842679;29;20082;-64
2023/04/03 04:19:40;;;;;;;5.25;2.30;;;;;;;;;;4837304;29;20518;-65
2023/04/03 04:22:10;;;;;;;5.78;1.73;;;;;;;;;;4914296;29;20096;-65
2023/04/03 04:24:40;;;;;;;7.05;2.80;;;;;;;;;;4848811;29;20119;-64
2023/04/03 04:27:10;;;;;;;7.10;2.10;;;;;;;;;;4857821;29;20045;-65
2023/04/03 04:29:40;;;;;;;5.43;2.40;;;;;;;;;;4857897;29;20084;-65
2023/04/03 04:32:10;;;;;;;5.15;2.22;;;;;;;;;;4839541;29;20053;-65
2023/04/03 04:34:41;;;;;;;6.03;2.22;;;;;;;;;;4830791;29;20527;-65
2023/04/03 04:37:11;;;;;;;4.20;1.77;;;;;;;;;;4820511;29;20046;-65
2023/04/03 04:39:41;;;;;;;5.22;2.17;;;;;;;;;;4803687;29;20063;-65
2023/04/03 04:42:12;;;;;;;8.00;2.03;;;;;;;;;;4839360;29;20126;-64
2023/04/03 04:44:47;;;;;;;7.13;2.00;;;;;;;;;;4806148;29;20055;-65
2023/04/03 04:47:17;;;;;;;6.47;1.80;;;;;;;;;;4820970;29;20412;-65
2023/04/03 04:49:48;;;;;;;5.35;2.10;;;;;;;;;;4820905;29;20058;-65
2023/04/03 04:52:18;;;;;;;3.42;1.75;;;;;;;;;;4820685;29;20057;-65
2023/04/03 04:54:48;;;;;;;8.43;2.35;;;;;;;;;;4790680;29;20081;-64
2023/04/03 04:57:18;;;;;;;5.50;2.17;;;;;;;;;;4822153;29;20058;-65
2023/04/03 04:59:48;;;;;;;6.68;1.90;;;;;;;;;;4776177;29;20055;-65
2023/04/03 05:02:18;;;;;;;5.07;2.05;;;;;;;;;;4766704;30;20066;-64
2023/04/03 05:04:49;;;;;;;4.78;2.22;;;;;;;;;;4784400;29;20058;-64
2023/04/03 05:07:24;;;;;;;7.28;2.70;;;;;;;;;;4802467;29;20102;-65
2023/04/03 05:09:58;;;;;;;4.78;2.10;;;;;;;;;;4820586;29;20069;-64
2023/04/03 05:12:29;;;;;;;5.13;1.90;;;;;;;;;;4815085;29;20057;-65
2023/04/03 05:15:01;;;;;;;4.85;2.08;;;;;;;;;;4810505;29;20061;-65
2023/04/03 05:17:32;;;;;;;6.32;2.20;;;;;;;;;;4820419;29;20531;-65
2023/04/03 05:20:05;;;;;;;3.92;1.83;;;;;;;;;;4797599;29;20061;-64
2023/04/03 05:22:35;;;;;;;5.68;2.22;;;;;;;;;;4805397;29;20046;-64
2023/04/03 05:25:09;;;;;;;6.25;2.00;;;;;;;;;;4812587;29;20089;-64
2023/04/03 05:27:43;;;;;;;4.93;2.08;;;;;;;;;;4798876;29;20067;-65
2023/04/03 05:30:13;;;;;;;7.53;1.95;;;;;;;;;;4791554;29;20524;-64
2023/04/03 05:32:45;;;;;;;6.10;1.83;;;;;;;;;;4765952;30;20084;-64
2023/04/03 05:35:19;;;;;;;6.80;2.17;;;;;;;;;;4765936;30;20427;-65
2023/04/03 05:37:52;;;;;;;4.97;2.03;;;;;;;;;;4766155;30;20074;-65
2023/04/03 05:40:23;;;;;;;5.32;1.83;;;;;;;;;;4766343;30;20513;-65
2023/04/03 05:42:55;;;;;;;4.90;1.98;;;;;;;;;;4771994;30;20062;-65
2023/04/03 05:45:27;;;;;;;4.90;1.95;;;;;;;;;;4807173;29;20058;-65
2023/04/03 05:47:59;;;;;;;6.97;2.20;;;;;;;;;;4828548;29;20407;-65
2023/04/03 05:50:30;;;;;;;6.63;1.92;;;;;;;;;;4796966;29;20051;-65
2023/04/03 05:53:03;;;;;;;6.05;1.98;;;;;;;;;;4794724;29;20088;-67
2023/04/03 05:55:33;;;;;;;6.70;2.10;;;;;;;;;;4790289;29;20067;-65
2023/04/03 05:58:04;;;;;;;11.27;2.00;;;;;;;;;;4801816;29;20055;-65
2023/04/03 06:00:34;;;;;;;5.65;2.00;;;;;;;;;;4801454;29;20050;-65
2023/04/03 06:03:05;;;;;;;7.55;2.25;;;;;;;;;;4830595;29;20521;-64
2023/04/03 06:05:36;;;;;;;7.57;2.10;;;;;;;;;;4845808;29;20053;-64
2023/04/03 06:08:06;;;;;;;3.70;1.90;;;;;;;;;;4841388;29;20061;-65
2023/04/03 06:10:36;;;;;;;5.43;2.58;;;;;;;;;;4886763;29;20104;-64
2023/04/03 06:13:08;;;;;;;8.98;2.25;;;;;;;;;;4856403;29;20061;-65
2023/04/03 06:15:39;;;;;;;8.07;2.13;;;;;;;;;;4846548;29;20069;-65
2023/04/03 06:18:09;;;;;;;4.95;1.90;;;;;;;;;;4807818;29;20081;-65
2023/04/03 06:20:39;;;;;;;3.75;2.50;;;;;;;;;;4881031;29;20414;-64
2023/04/03 06:23:10;;;;;;;5.03;2.10;;;;;;;;;;4846787;29;20065;-64
2023/04/03 06:25:40;;;;;;;4.47;2.00;;;;;;;;;;4828787;29;20415;-64
2023/04/03 06:28:10;;;;;;;6.40;1.92;;;;;;;;;;4810469;29;20570;-65
2023/04/03 06:30:41;;;;;;;5.60;2.20;;;;;;;;;;4810649;29;20734;-65
2023/04/03 06:33:11;;;;;;;5.88;2.22;;;;;;;;;;4777183;29;20051;-65
2023/04/03 06:35:41;;;;;;;5.18;1.90;;;;;;;;;;4840595;29;20069;-65
2023/04/03 06:38:11;;;;;;;3.95;2.10;;;;;;;;;;4851551;29;20058;-65
2023/04/03 06:40:41;;;;;;;4.50;1.95;;;;;;;;;;4822865;29;20060;-65
2023/04/03 06:43:11;;;;;;;5.18;2.05;;;;;;;;;;4856912;29;20064;-64
2023/04/03 06:45:41;;;;;;;5.47;2.45;;;;;;;;;;4924990;29;20063;-65
2023/04/03 06:48:11;;;;;;;5.35;2.00;;;;;;;;;;4953189;28;20068;-65
2023/04/03 06:50:41;;;;;;;5.85;2.30;;;;;;;;;;4918978;29;20064;-64
2023/04/03 06:53:12;;;;;;;5.68;2.03;;;;;;;;;;4935092;29;20108;-64
2023/04/03 06:55:42;;;;;;;6.88;2.80;;;;;;;;;;4915872;29;20056;-64
2023/04/03 06:58:15;;;;;;;;;;;;;;;;;;4920421;29;20067;-65
2023/04/03 07:00:45;;;;;;;7.20;2.33;;;;;;;;;;4952409;28;19929;-65
2023/04/03 07:03:16;;;;;;;9.35;2.45;;;;;;;;;;4973280;28;20502;-65
2023/04/03 07:05:46;;;;;;;6.35;2.50;;;;;;;;;;4973283;28;20054;-65
2023/04/03 07:08:16;;;;;;;6.90;2.47;;;;;;;;;;4973372;28;20055;-64
2023/04/03 07:10:46;;;;;;;6.03;2.80;;;;;;;;;;4973551;28;20045;-64
2023/04/03 07:13:16;;;;;;;6.80;2.17;;;;;;;;;;4973065;28;20419;-64
2023/04/03 07:15:45;;;;;;;8.65;2.30;;;;;;;;;;4973136;28;20507;-64
2023/04/03 07:18:19;;;;;;;8.20;2.33;;;;;;;;;;4973116;28;20535;-65
2023/04/03 07:20:49;;;;;;;5.65;2.00;;;;;;;;;;4973361;28;20095;-64
2023/04/03 07:23:19;;;;;;;5.32;2.40;;;;;;;;;;4956865;28;20062;-64
2023/04/03 07:25:50;;;;;;;7.25;2.25;;;;;;;;;;4924881;28;20102;-65
2023/04/03 07:28:22;;;;;;;5.15;2.15;;;;;;;;;;4982791;28;20062;-64
2023/04/03 07:31:01;;;;;;;6.55;2.50;;;;;;;;;;4959771;28;20069;-65
2023/04/03 07:33:33;;;;;;;6.50;2.88;;;;;;;;;;4941819;29;20419;-65
2023/04/03 07:36:03;;;;;;;6.03;2.33;;;;;;;;;;4934545;29;20056;-64
2023/04/03 07:38:35;;;;;;;4.85;2.22;;;;;;;;;;4908719;28;20074;-65
2023/04/03 07:41:05;;;;;;;7.22;2.30;;;;;;;;;;4956630;28;20541;-64
2023/04/03 07:43:36;;;;;;;6.82;2.22;;;;;;;;;;4940582;28;20051;-65
2023/04/03 07:46:06;;;;;;;7.22;2.60;;;;;;;;;;4915119;29;20501;-65
2023/04/03 07:48:36;;;;;;;6.00;2.55;;;;;;;;;;4915080;29;20420;-65
2023/04/03 07:51:06;;;;;;;5.93;2.00;;;;;;;;;;4891521;29;20416;-64
2023/04/03 07:53:36;;;;;;;5.82;2.85;;;;;;;;;;4915086;29;20080;-64
2023/04/03 07:56:06;;;;;;;4.78;2.28;;;;;;;;;;4868355;29;20056;-64
2023/04/03 07:58:37;;;;;;;4.65;2.22;;;;;;;;;;4883449;29;20064;-65
2023/04/03 08:01:07;;;;;;;6.03;2.92;;;;;;;;;;4915254;29;20056;-65
2023/04/03 08:03:37;;;;;;;4.40;2.38;;;;;;;;;;4917185;29;20455;-64
2023/04/03 08:06:09;;;;;;;6.22;2.10;;;;;;;;;;4953038;29;20055;-64
2023/04/03 08:08:43;;;;;;;7.07;2.25;;;;;;;;;;4942255;28;20054;-64
2023/04/03 08:11:13;;;;;;;6.55;2.15;;;;;;;;;;4956171;28;20054;-64
2023/04/03 08:13:43;;;;;;;7.70;2.60;;;;;;;;;;4956291;28;20062;-65
2023/04/03 08:16:18;;;;;;;4.95;2.25;;;;;;;;;;4972303;28;20053;-64
2023/04/03 08:18:48;;;;;;;6.72;2.35;;;;;;;;;;4972289;28;20043;-64
2023/04/03 08:21:18;;;;;;;6.63;2.30;;;;;;;;;;4972370;28;20042;-65
2023/04/03 08:23:51;;;;;;;6.15;2.25;;;;;;;;;;4994083;28;20054;-65
2023/04/03 08:26:22;;;;;;;5.43;2.42;;;;;;;;;;4978845;28;20046;-65
2023/04/03 08:28:52;;;;;;;5.30;2.65;;;;;;;;;;5013124;28;20517;-65
2023/04/03 08:31:22;;;;;;;5.57;2.33;;;;;;;;;;5012429;28;20058;-65
2023/04/03 08:33:52;;;;;;;4.70;2.30;;;;;;;;;;5013389;28;20046;-65
2023/04/03 08:36:30;;;;;;;5.57;2.38;;;;;;;;;;5013231;28;20041;-65
2023/04/03 08:39:02;;;;;;;7.22;2.67;;;;;;;;;;5013133;28;20386;-65
2023/04/03 08:41:41;;;;;;;5.45;2.42;;;;;;;;;;5013083;28;20041;-64
2023/04/03 08:44:16;;;;;;;5.65;2.25;;;;;;;;;;4971748;28;20055;-65
2023/04/03 08:47:24;;;;;;;5.53;2.30;;;;;;;;;;4971760;28;20063;-65
2023/04/03 08:50:00;;;;;;;7.25;2.53;;;;;;;;;;4971712;28;20061;-64
2023/04/03 08:53:03;;;;;;;6.93;2.97;;;;;;;;;;4971571;28;20043;-64
2023/04/03 08:55:51;;;;;;;6.43;2.80;;;;;;;;;;4922865;28;20447;-65
2023/04/03 08:58:26;;;;;;;6.50;2.70;;;;;;;;;;4971657;28;20518;-64
2023/04/03 09:01:14;;;;;;;8.48;2.53;;;;;;;;;;4938125;28;20053;-65
2023/04/03 09:03:44;;;;;;;6.75;2.78;;;;;;;;;;4935875;29;20047;-64
2023/04/03 09:06:32;;;;;;;7.97;2.55;;;;;;;;;;4952091;29;20062;-64
2023/04/03 09:09:16;;;;;;;6.57;2.45;;;;;;;;;;4890307;29;20559;-64
2023/04/03 09:12:08;;;;;;;6.40;2.90;;;;;;;;;;4936142;29;20059;-64
2023/04/03 09:14:50;;;;;;;7.20;2.92;;;;;;;;;;4932513;29;20451;-65
2023/04/03 09:17:44;;;;;;;8.52;2.38;;;;;;;;;;4932431;29;20056;-65
2023/04/03 09:20:43;;;;;;;6.53;2.40;;;;;;;;;;4932847;29;20206;-64
2023/04/03 09:23:23;;;;;;;6.05;2.78;;;;;;;;;;4964172;28;20051;-64
2023/04/03 09:26:04;;;;;;;6.95;2.65;;;;;;;;;;4970774;28;20054;-64
2023/04/03 09:28:39;;;;;;;7.22;2.83;;;;;;;;;;4970731;28;20070;-64
2023/04/03 09:31:35;;;;;;;6.72;2.70;;;;;;;;;;4980547;28;20057;-64
2023/04/03 09:34:27;;;;;;;8.48;2.75;;;;;;;;;;4900626;28;20059;-67
2023/04/03 09:37:05;;;;;;;7.45;2.45;;;;;;;;;;4989012;28;20050;-64
2023/04/03 09:39:54;;;;;;;6.28;2.45;;;;;;;;;;4975298;28;20074;-64
2023/04/03 09:42:25;;;;;;;5.65;2.47;;;;;;;;;;4970251;28;20055;-64
2023/04/03 09:45:06;;;;;;;8.93;2.45;;;;;;;;;;4973266;28;20058;-64
2023/04/03 09:47:37;;;;;;;5.28;2.78;;;;;;;;;;4941862;28;20518;-64
2023/04/03 09:50:19;;;;;;;5.85;2.80;;;;;;;;;;4973908;28;20054;-64
2023/04/03 09:52:54;;;;;;;5.57;2.63;;;;;;;;;;4974008;28;20050;-64
2023/04/03 09:55:29;;;;;;;6.78;2.90;;;;;;;;;;4989856;28;20603;-64
2023/04/03 09:58:04;;;;;;;6.63;3.10;;;;;;;;;;4989707;28;20495;-64
2023/04/03 10:00:40;;;;;;;6.22;3.03;;;;;;;;;;4989803;28;20066;-64
2023/04/03 10:03:36;;;;;;;12.07;2.72;;;;;;;;;;4989908;28;20061;-64
2023/04/03 10:06:24;;;;;;;5.90;3.25;;;;;;;;;;4972898;28;20422;-64
2023/04/03 10:09:07;;;;;;;8.85;2.92;;;;;;;;;;4989598;28;20050;-64
2023/04/03 10:11:37;;;;;;;8.73;3.17;;;;;;;;;;4957384;28;20054;-64
2023/04/03 10:14:17;;;;;;;7.75;2.97;;;;;;;;;;4941566;28;20618;-64
2023/04/03 10:17:28;;;;;;;7.45;3.22;;;;;;;;;;4989653;28;20039;-64
2023/04/03 10:20:24;;;;;;;12.32;3.45;;;;;;;;;;4931660;29;20067;-64
2023/04/03 10:23:01;;;;;;;13.75;4.30;;;;;;;;;;4912680;29;20063;-65
2023/04/03 10:25:35;;;;;;;13.13;3.97;;;;;;;;;;4912753;29;20056;-63
2023/04/03 10:28:18;;;;;;;10.15;3.83;;;;;;;;;;4912497;29;20080;-63
2023/04/03 10:30:54;;;;;;;14.07;3.85;;;;;;;;;;4898082;29;20068;-64
2023/04/03 10:34:02;;;;;;;11.77;3.97;;;;;;;;;;4897038;29;20126;-64
2023/04/03 10:36:44;;;;;;;6.93;3.25;;;;;;;;;;4875138;29;20061;-63
2023/04/03 10:39:34;;;;;;;9.32;3.40;;;;;;;;;;4875191;29;20053;-64
2023/04/03 10:42:18;;;;;;;10.90;3.55;;;;;;;;;;4875187;29;20065;-66
2023/04/03 10:44:57;;;;;;;10.88;3.60;;;;;;;;;;4874373;29;20426;-64
2023/04/03 10:47:57;;;;;;;10.95;3.55;;;;;;;;;;4875105;29;20053;-65
2023/04/03 10:50:44;;;;;;;10.27;3.55;;;;;;;;;;4871809;29;20057;-64
2023/04/03 10:54:14;;;;;;;11.95;3.13;;;;;;;;;;4854827;29;20057;-65
2023/04/03 10:57:03;;;;;;;5.90;2.97;;;;;;;;;;4775014;30;20063;-65
2023/04/03 11:00:04;;;;;;;11.35;3.22;;;;;;;;;;4802926;29;20042;-65
2023/04/03 11:02:46;;;;;;;9.55;3.25;;;;;;;;;;4807261;29;20057;-65
2023/04/03 11:05:19;;;;;;;10.35;3.50;;;;;;;;;;4819457;29;20077;-65
2023/04/03 11:07:53;;;;;;;8.45;3.67;;;;;;;;;;4831818;29;20392;-65
2023/04/03 11:11:00;;;;;;;9.75;3.35;;;;;;;;;;4852703;29;20061;-65
2023/04/03 11:13:46;;;;;;;13.77;3.50;;;;;;;;;;4800570;29;20054;-64
2023/04/03 11:16:21;;;;;;;9.35;3.55;;;;;;;;;;4783031;30;20055;-64
2023/04/03 11:19:23;;;;;;;10.43;4.00;;;;;;;;;;4796703;29;20478;-65
2023/04/03 11:22:30;;;;;;;10.98;3.33;;;;;;;;;;4829081;29;20553;-65
2023/04/03 11:25:13;;;;;;;7.47;3.22;;;;;;;;;;4786510;29;20082;-65
2023/04/03 11:28:04;;;;;;;9.75;3.33;;;;;;;;;;4803088;29;20224;-65
2023/04/03 11:31:00;;;;;;;;;;;;;;;;;;4769198;30;20066;-65
2023/04/03 11:33:45;;;;;;;12.38;3.30;;;;;;;;;;4770038;29;19932;-65
2023/04/03 11:36:38;;;;;;;7.30;3.00;;;;;;;;;;4775383;29;20055;-65
2023/04/03 11:39:28;;;;;;;7.93;2.53;;;;;;;;;;4822394;29;20061;-67
2023/04/03 11:42:36;;;;;;;5.80;2.72;;;;;;;;;;4787483;29;20051;-65
2023/04/03 11:45:26;;;;;;;6.40;3.03;;;;;;;;;;4797115;29;20050;-65
2023/04/03 11:48:01;;;;;;;7.93;2.90;;;;;;;;;;4789713;29;20431;-65
2023/04/03 11:50:50;;;;;;;7.22;2.88;;;;;;;;;;4877618;29;20044;-64
2023/04/03 12:16:38;;;;;;;10.05;4.68;;;;;;;;;;5014066;28;20034;-66
2023/04/03 12:19:15;;;;;;;12.93;5.22;;;;;;;;;;4978782;28;20050;-64
2023/04/03 12:21:47;;;;;;;12.25;4.40;;;;;;;;;;5013534;28;20046;-64
2023/04/03 12:24:19;;;;;;;6.72;2.90;;;;;;;;;;5013618;28;20073;-64
2023/04/03 12:27:01;;;;;;;8.00;2.55;;;;;;;;;;5013507;28;20058;-64
2023/04/03 12:29:32;;;;;;;7.28;3.15;;;;;;;;;;5012524;28;20042;-64
2023/04/03 12:32:36;;;;;;;10.63;4.22;;;;;;;;;;5013521;28;20053;-65
2023/04/03 12:35:11;;;;;;;;;;;;;;;;;;4963744;28;20065;-64
2023/04/03 12:38:18;;;;;;;5.57;2.42;;;;;;;;;;5013199;28;19921;-64
2023/04/03 12:41:10;;;;;;;7.43;2.67;;;;;;;;;;5012981;28;20068;-65
2023/04/03 12:44:00;;;;;;;7.45;2.75;;;;;;;;;;5013421;28;20528;-65
2023/04/03 12:46:49;;;;;;;6.35;2.50;;;;;;;;;;5013121;28;20513;-64
2023/04/03 12:49:41;;;;;;;6.20;2.75;;;;;;;;;;4995736;28;20045;-64
2023/04/03 12:52:32;;;;;;;6.68;3.78;;;;;;;;;;4974657;28;20522;-65
2023/04/03 12:55:03;;;;;;;10.40;4.03;;;;;;;;;;4958505;28;20047;-64
2023/04/03 12:57:36;;;;;;;6.50;2.85;;;;;;;;;;4990862;28;20062;-65
2023/04/03 13:00:33;;;;;;;5.95;2.42;;;;;;;;;;4974607;28;20545;-64
2023/04/03 13:03:05;;;;;;;8.45;3.28;;;;;;;;;;4990832;28;20058;-65
2023/04/03 13:05:35;;;;;;;5.95;2.92;;;;;;;;;;4974664;28;20055;-65
2023/04/03 13:08:12;;;;;;;5.15;2.60;;;;;;;;;;4927417;28;20062;-65
2023/04/03 13:10:59;;;;;;;6.15;2.33;;;;;;;;;;4991278;28;20477;-63
2023/04/03 13:13:30;;;;;;;8.00;2.85;;;;;;;;;;4942367;28;20059;-64
2023/04/03 13:16:10;;;;;;;5.70;2.15;;;;;;;;;;4988670;28;20054;-65
2023/04/03 13:18:41;;;;;;;5.93;2.45;;;;;;;;;;4970323;28;20065;-64
2023/04/03 13:21:18;;;;;;;5.43;2.55;;;;;;;;;;4924211;28;20058;-63
2023/04/03 13:23:51;;;;;;;6.43;3.15;;;;;;;;;;4970956;28;20154;-63
2023/04/03 13:26:35;;;;;;;6.63;2.67;;;;;;;;;;4988575;28;20895;-64
2023/04/03 13:29:15;;;;;;;7.72;2.63;;;;;;;;;;4954185;28;20061;-63
2023/04/03 13:31:58;;;;;;;5.18;2.78;;;;;;;;;;5031691;28;20045;-63
2023/04/03 13:34:41;;;;;;;9.27;3.22;;;;;;;;;;5031154;28;20049;-64
2023/04/03 13:37:26;;;;;;;5.55;2.90;;;;;;;;;;5032363;28;20099;-65
2023/04/03 13:40:11;;;;;;;4.45;2.55;;;;;;;;;;5010107;28;20049;-64
2023/04/03 13:42:42;;;;;;;11.60;3.03;;;;;;;;;;5019500;28;20056;-63
2023/04/03 13:45:12;;;;;;;8.43;2.40;;;;;;;;;;4952666;28;20055;-64
2023/04/03 13:47:42;;;;;;;5.68;3.17;;;;;;;;;;4970299;28;20059;-63
2023/04/03 13:50:12;;;;;;;7.88;2.90;;;;;;;;;;4970580;28;20419;-63
2023/04/03 13:52:54;;;;;;;8.38;2.97;;;;;;;;;;4954174;28;20069;-62
2023/04/03 13:55:33;;;;;;;5.47;2.72;;;;;;;;;;4970183;28;20402;-63
2023/04/03 13:58:09;;;;;;;5.45;2.50;;;;;;;;;;4938568;28;20511;-64
2023/04/03 14:00:50;;;;;;;4.18;2.60;;;;;;;;;;4970113;28;20545;-63
2023/04/03 14:03:42;;;;;;;9.07;2.63;;;;;;;;;;4936512;28;20067;-63
2023/04/03 14:06:16;;;;;;;4.50;2.17;;;;;;;;;;4968247;28;20414;-63
2023/04/03 14:08:48;;;;;;;4.22;2.63;;;;;;;;;;4966897;28;20054;-63
2023/04/03 14:11:28;;;;;;;3.30;2.00;;;;;;;;;;4937434;28;20085;-63
2023/04/03 14:14:04;;;;;;;3.17;1.60;;;;;;;;;;4967937;28;20816;-63
2023/04/03 14:16:39;;;;;;;5.55;1.98;;;;;;;;;;4950157;28;20427;-63
2023/04/03 14:19:28;;;;;;;5.22;1.98;;;;;;;;;;4881086;29;20049;-64
2023/04/03 14:21:59;;;;;;;7.60;1.85;;;;;;;;;;4871709;29;20051;-62
2023/04/03 14:24:29;;;;;;;7.63;2.00;;;;;;;;;;4935350;29;20059;-62
2023/04/03 14:27:00;;;;;;;5.88;2.22;;;;;;;;;;4944168;28;20175;-63
2023/04/03 14:29:30;;;;;;;4.60;1.85;;;;;;;;;;4912399;29;20063;-63
2023/04/03 14:32:00;;;;;;;6.05;1.70;;;;;;;;;;4912457;29;20044;-68
2023/04/03 14:34:43;;;;;;;3.30;1.80;;;;;;;;;;4881283;29;20060;-62
2023/04/03 14:37:17;;;;;;;10.38;1.70;;;;;;;;;;4912463;29;20502;-62
2023/04/03 14:39:47;;;;;;;4.07;1.60;;;;;;;;;;4912465;29;20548;-62
2023/04/03 14:42:21;;;;;;;7.35;1.52;;;;;;;;;;4896166;29;20164;-63
2023/04/03 14:44:52;;;;;;;4.13;1.45;;;;;;;;;;4893746;29;20064;-63
2023/04/03 14:47:27;;;;;;;6.88;1.45;;;;;;;;;;4862412;29;20068;-62
2023/04/03 14:50:03;;;;;;;4.50;1.85;;;;;;;;;;4893251;29;20069;-63
2023/04/03 14:52:36;;;;;;;5.93;1.50;;;;;;;;;;4909215;29;20071;-62
2023/04/03 14:55:08;;;;;;;3.42;1.30;;;;;;;;;;4922880;29;20071;-63
2023/04/03 14:57:39;;;;;;;3.70;1.10;;;;;;;;;;4920952;29;20058;-62
2023/04/03 15:00:18;;;;;;;4.32;1.38;;;;;;;;;;4970784;28;20073;-63
2023/04/03 15:02:49;;;;;;;3.50;1.27;;;;;;;;;;4918243;29;20411;-62
2023/04/03 15:05:19;;;;;;;3.53;1.20;;;;;;;;;;4935194;29;20047;-62
2023/04/03 15:07:57;;;;;;;6.97;1.35;;;;;;;;;;4964233;28;20081;-62
2023/04/03 15:10:29;;;;;;;5.93;1.27;;;;;;;;;;4953977;29;20055;-61
2023/04/03 15:13:00;;;;;;;5.35;1.48;;;;;;;;;;4954094;29;20062;-62
2023/04/03 15:15:30;;;;;;;3.85;1.67;;;;;;;;;;4965657;28;20103;-63
2023/04/03 15:18:00;;;;;;;6.47;1.85;;;;;;;;;;4974449;28;20423;-63
2023/04/03 15:20:33;;;;;;;4.70;1.40;;;;;;;;;;4973192;28;20458;-62
2023/04/03 15:23:04;;;;;;;2.53;0.90;;;;;;;;;;4895622;28;20051;-62
2023/04/03 15:25:34;;;;;;;3.50;1.50;;;;;;;;;;4934211;29;20471;-63
2023/04/03 15:28:04;;;;;;;2.28;1.00;;;;;;;;;;4917887;29;20064;-64
2023/04/03 15:30:38;;;;;;;2.38;1.05;;;;;;;;;;4934215;29;20052;-63
2023/04/03 15:33:08;;;;;;;3.22;1.42;;;;;;;;;;4855372;29;20176;-64
2023/04/03 15:35:38;;;;;;;4.85;1.15;;;;;;;;;;4919223;29;20459;-63
2023/04/03 15:38:10;;;;;;;4.63;0.90;;;;;;;;;;4933765;29;20055;-63
2023/04/03 15:40:40;;;;;;;2.92;1.10;;;;;;;;;;4936517;29;20048;-63
2023/04/03 15:43:11;;;;;;;2.35;1.00;;;;;;;;;;4953387;29;20074;-64
2023/04/03 15:45:41;;;;;;;4.97;1.15;;;;;;;;;;4953733;29;20051;-64
2023/04/03 15:48:12;;;;;;;3.63;0.90;;;;;;;;;;4959553;28;20057;-63
2023/04/03 15:50:42;;;;;;;2.88;1.00;;;;;;;;;;4940744;28;20062;-64
2023/04/03 15:53:12;;;;;;;3.35;1.00;;;;;;;;;;4940662;28;20050;-64
2023/04/03 15:55:42;;;;;;;3.22;0.98;;;;;;;;;;4940979;28;20054;-64